Time;durP1;ratioP1;P1;durP2;ratioP2;P2;SDS_P1;SDS_P2;PMS_P1;PMS_P2;Temp;Humidity;BMP_temperature;BMP_pressure;BME280_temperature;BME280_humidity;BME280_pressure;Samples;Min_cycle;Max_cycle;Signal;HPM_P1;HPM_P2
2023/07/21 00:02:20;;;;;;;11.20;4.07;;;15.10;29.10;;;;;;5057250;28;46820;-82
2023/07/21 00:04:45;;;;;;;13.97;3.50;;;15.10;29.10;;;;;;5061703;28;46994;-82
2023/07/21 00:07:11;;;;;;;7.60;3.40;;;15.10;29.30;;;;;;5061427;28;46498;-82
2023/07/21 00:09:37;;;;;;;8.50;3.60;;;15.20;29.60;;;;;;5063724;28;46612;-83
2023/07/21 00:12:03;;;;;;;7.73;3.50;;;15.00;29.60;;;;;;5044355;28;47144;-83
2023/07/21 00:14:29;;;;;;;9.50;3.47;;;15.00;29.60;;;;;;5060727;28;47247;-83
2023/07/21 00:16:55;;;;;;;11.97;4.33;;;14.90;29.60;;;;;;5062581;28;46434;-82
2023/07/21 00:19:21;;;;;;;12.17;3.70;;;14.90;29.60;;;;;;5064208;28;46401;-82
2023/07/21 00:21:46;;;;;;;12.50;3.40;;;14.90;29.60;;;;;;5061656;28;45994;-81
2023/07/21 00:24:13;;;;;;;10.50;4.03;;;14.90;29.60;;;;;;5061317;28;46511;-81
2023/07/21 00:26:38;;;;;;;12.13;3.37;;;14.80;29.80;;;;;;5064221;28;46429;-82
2023/07/21 00:29:04;;;;;;;8.07;3.80;;;14.90;29.90;;;;;;5060890;28;46427;-83
2023/07/21 00:31:31;;;;;;;7.53;3.40;;;14.80;29.90;;;;;;5062693;28;46722;-82
2023/07/21 00:33:57;;;;;;;17.73;4.00;;;14.90;30.00;;;;;;5061577;28;46499;-81
2023/07/21 00:36:23;;;;;;;11.13;3.90;;;14.90;30.00;;;;;;5043603;28;46438;-83
2023/07/21 00:38:49;;;;;;;10.80;4.00;;;14.80;30.00;;;;;;5062421;28;46282;-81
2023/07/21 00:41:15;;;;;;;10.43;3.40;;;14.80;30.00;;;;;;5043469;28;46664;-86
2023/07/21 00:43:41;;;;;;;15.13;4.20;;;14.80;30.20;;;;;;5062613;28;46984;-83
2023/07/21 00:46:07;;;;;;;7.80;4.20;;;14.80;30.30;;;;;;5060905;28;46241;-82
2023/07/21 00:48:33;;;;;;;11.10;3.10;;;14.70;30.40;;;;;;5043430;28;46448;-83
2023/07/21 00:50:59;;;;;;;15.33;3.80;;;14.70;30.50;;;;;;5061604;28;46482;-84
2023/07/21 00:53:26;;;;;;;10.33;4.07;;;14.70;30.70;;;;;;5061283;28;46901;-85
2023/07/21 00:55:52;;;;;;;15.27;4.03;;;14.70;30.80;;;;;;5062849;28;46623;-83
2023/07/21 00:58:18;;;;;;;11.13;3.30;;;14.60;31.00;;;;;;5061607;28;46502;-83
2023/07/21 01:00:44;;;;;;;8.40;4.17;;;14.60;31.10;;;;;;5062167;28;46483;-82
2023/07/21 01:03:12;;;;;;;8.07;3.90;;;14.70;31.10;;;;;;5061949;28;47271;-82
2023/07/21 01:05:41;;;;;;;9.70;4.33;;;14.70;31.10;;;;;;5062474;28;46379;-83
2023/07/21 01:08:08;;;;;;;11.40;3.93;;;14.70;31.10;;;;;;5062048;28;46482;-82
2023/07/21 01:10:36;;;;;;;7.40;3.70;;;14.70;31.20;;;;;;5065869;28;45923;-83
2023/07/21 01:13:02;;;;;;;16.93;4.27;;;14.70;31.20;;;;;;5061844;28;46679;-81
2023/07/21 01:15:30;;;;;;;11.40;4.27;;;14.70;31.40;;;;;;5065169;28;46511;-84
2023/07/21 01:17:57;;;;;;;9.23;4.17;;;14.70;31.20;;;;;;5070056;28;46814;-82
2023/07/21 01:20:27;;;;;;;7.27;4.10;;;14.70;31.40;;;;;;5061604;28;46621;-81
2023/07/21 01:22:56;;;;;;;7.80;4.00;;;14.60;30.50;;;;;;5061011;28;46673;-82
2023/07/21 01:25:22;;;;;;;9.50;3.50;;;14.60;31.50;;;;;;5062094;28;46416;-81
2023/07/21 01:27:50;;;;;;;9.60;3.37;;;14.60;31.50;;;;;;5061897;28;46886;-81
2023/07/21 01:30:19;;;;;;;9.20;3.63;;;14.60;31.70;;;;;;5058800;28;46623;-82
2023/07/21 01:32:46;;;;;;;10.53;3.87;;;14.60;31.80;;;;;;5064874;28;46840;-81
2023/07/21 01:35:15;;;;;;;10.53;4.20;;;14.50;31.90;;;;;;5063873;28;45872;-79
2023/07/21 01:37:43;;;;;;;9.10;4.00;;;14.50;31.90;;;;;;5044168;28;46431;-81
2023/07/21 01:40:14;;;;;;;13.30;6.03;;;14.50;31.80;;;;;;5042539;28;46448;-82
2023/07/21 01:42:41;;;;;;;11.80;3.53;;;14.60;31.90;;;;;;5060300;28;46392;-82
2023/07/21 01:45:07;;;;;;;7.93;3.40;;;14.70;31.90;;;;;;5062023;28;46431;-80
2023/07/21 01:47:34;;;;;;;10.03;4.27;;;14.60;31.80;;;;;;5061118;28;46697;-79
2023/07/21 01:50:01;;;;;;;13.93;3.70;;;14.60;31.80;;;;;;5043356;28;46613;-81
2023/07/21 01:52:28;;;;;;;17.17;4.20;;;14.60;32.00;;;;;;5061791;28;46475;-80
2023/07/21 01:55:10;;;;;;;7.37;3.63;;;14.60;32.20;;;;;;5060367;28;46455;-81
2023/07/21 01:57:43;;;;;;;10.13;4.17;;;14.50;32.50;;;;;;5060538;28;46400;-80
2023/07/21 02:00:10;;;;;;;10.73;4.27;;;14.60;32.50;;;;;;5063896;28;46400;-79
2023/07/21 02:02:38;;;;;;;9.33;4.37;;;14.50;32.50;;;;;;5060929;28;46331;-80
2023/07/21 02:05:05;;;;;;;10.20;4.03;;;14.40;32.60;;;;;;5060376;28;46401;-80
2023/07/21 02:07:31;;;;;;;13.60;3.90;;;14.50;32.80;;;;;;5060484;28;46481;-80
2023/07/21 02:09:58;;;;;;;9.43;3.30;;;14.40;32.90;;;;;;5058667;28;46681;-80
2023/07/21 02:12:23;;;;;;;7.10;3.40;;;14.40;33.10;;;;;;5060975;28;48082;-79
2023/07/21 02:14:49;;;;;;;11.73;3.67;;;14.40;33.30;;;;;;5062479;28;45956;-79
2023/07/21 02:17:14;;;;;;;9.30;3.77;;;14.30;33.50;;;;;;5061872;28;46530;-79
2023/07/21 02:19:40;;;;;;;6.43;3.40;;;14.30;33.70;;;;;;5060711;28;46500;-82
2023/07/21 02:22:06;;;;;;;7.60;3.70;;;14.30;33.80;;;;;;5059376;28;47215;-80
2023/07/21 02:24:32;;;;;;;8.93;4.07;;;14.30;33.90;;;;;;5058799;28;46643;-80
2023/07/21 02:26:59;;;;;;;16.13;4.13;;;14.30;34.10;;;;;;5060576;28;46467;-80
2023/07/21 02:29:25;;;;;;;11.93;4.60;;;14.30;34.10;;;;;;5060681;28;46502;-77
2023/07/21 02:31:50;;;;;;;8.40;3.47;;;14.30;34.00;;;;;;5059604;28;46567;-79
2023/07/21 02:34:16;;;;;;;8.07;3.63;;;14.30;34.00;;;;;;5060879;28;46491;-80
2023/07/21 02:36:41;;;;;;;6.10;3.27;;;14.30;33.90;;;;;;5061696;28;46585;-80
2023/07/21 02:39:07;;;;;;;8.07;4.00;;;14.40;33.90;;;;;;5060201;28;46350;-83
2023/07/21 02:41:33;;;;;;;7.20;3.30;;;14.40;34.00;;;;;;5058378;28;49613;-80
2023/07/21 02:43:59;;;;;;;9.00;4.07;;;14.40;33.80;;;;;;5061378;28;46423;-80
2023/07/21 02:46:25;;;;;;;12.57;4.23;;;14.40;33.80;;;;;;5060349;28;46581;-80
2023/07/21 02:48:51;;;;;;;8.73;4.43;;;14.40;33.60;;;;;;5043221;28;46416;-80
2023/07/21 02:51:16;;;;;;;13.37;3.90;;;14.50;33.70;;;;;;5060403;28;47025;-80
2023/07/21 02:53:42;;;;;;;8.40;3.90;;;14.50;33.60;;;;;;5061569;28;46506;-83
2023/07/21 02:56:08;;;;;;;7.70;3.60;;;14.60;33.60;;;;;;5062408;28;46595;-81
2023/07/21 02:58:34;;;;;;;9.87;4.00;;;14.70;33.50;;;;;;5044233;28;45909;-80
2023/07/21 03:01:03;;;;;;;8.30;3.87;;;14.70;33.30;;;;;;5061351;28;47141;-80
2023/07/21 03:03:29;;;;;;;11.40;3.73;;;14.80;33.10;;;;;;5060000;28;45915;-81
2023/07/21 03:05:56;;;;;;;11.30;3.50;;;14.80;32.80;;;;;;5060405;28;46426;-81
2023/07/21 03:08:28;;;;;;;8.60;3.77;;;14.90;32.90;;;;;;5060864;28;46583;-81
2023/07/21 03:10:55;;;;;;;13.50;4.30;;;14.90;32.80;;;;;;5060660;28;46513;-80
2023/07/21 03:13:24;;;;;;;9.23;3.87;;;15.00;32.80;;;;;;5044321;28;46526;-81
2023/07/21 03:15:53;;;;;;;12.70;3.70;;;14.90;32.80;;;;;;5058210;28;46738;-81
2023/07/21 03:18:19;;;;;;;9.40;4.10;;;14.90;33.10;;;;;;5040929;28;46490;-81
2023/07/21 03:20:45;;;;;;;10.40;4.07;;;15.00;33.30;;;;;;5060316;28;46435;-81
2023/07/21 03:23:11;;;;;;;9.50;4.00;;;14.90;33.20;;;;;;5061357;28;46774;-81
2023/07/21 03:25:44;;;;;;;11.33;3.30;;;14.90;33.30;;;;;;5062298;28;45843;-80
2023/07/21 03:28:09;;;;;;;10.63;4.77;;;14.90;33.30;;;;;;5062388;28;46432;-80
2023/07/21 03:30:35;;;;;;;8.57;4.40;;;14.90;33.50;;;;;;5064470;28;47117;-80
2023/07/21 03:33:00;;;;;;;13.13;4.40;;;14.90;32.50;;;;;;5061696;28;46418;-80
2023/07/21 03:35:26;;;;;;;12.00;4.80;;;14.90;33.50;;;;;;5058023;28;46452;-78
2023/07/21 03:37:52;;;;;;;11.03;4.87;;;14.90;33.60;;;;;;5049678;28;46861;-79
2023/07/21 03:40:17;;;;;;;9.93;3.93;;;14.90;33.80;;;;;;5058657;28;49124;-78
2023/07/21 03:42:43;;;;;;;12.47;4.53;;;14.90;33.70;;;;;;5062179;28;46456;-78
2023/07/21 03:45:09;;;;;;;10.57;5.20;;;15.00;33.60;;;;;;5059663;28;46457;-79
2023/07/21 03:47:35;;;;;;;8.07;3.70;;;15.00;33.40;;;;;;5059661;28;46499;-79
2023/07/21 03:50:02;;;;;;;14.43;4.27;;;15.20;33.20;;;;;;5060073;28;46497;-78
2023/07/21 03:52:28;;;;;;;8.10;3.93;;;15.20;33.00;;;;;;5039054;28;46726;-79
2023/07/21 03:54:55;;;;;;;10.73;3.93;;;15.40;33.00;;;;;;5059491;28;46974;-79
2023/07/21 03:57:21;;;;;;;9.10;3.77;;;15.40;33.00;;;;;;5059023;28;46645;-79
2023/07/21 03:59:50;;;;;;;16.60;3.73;;;15.30;33.00;;;;;;5062055;28;46434;-79
2023/07/21 04:02:16;;;;;;;10.80;3.87;;;15.30;33.10;;;;;;5057501;28;46590;-79
2023/07/21 04:04:42;;;;;;;8.10;3.60;;;15.30;33.10;;;;;;5059659;28;46752;-79
2023/07/21 04:07:08;;;;;;;15.90;4.43;;;15.40;33.50;;;;;;5041514;28;46615;-80
2023/07/21 04:09:34;;;;;;;10.80;4.03;;;15.30;33.50;;;;;;5060099;28;46924;-79
2023/07/21 04:12:01;;;;;;;10.70;4.50;;;15.30;33.70;;;;;;5058464;28;46395;-79
2023/07/21 04:14:27;;;;;;;9.43;4.37;;;15.40;33.70;;;;;;5059591;28;46511;-80
2023/07/21 04:16:53;;;;;;;14.50;4.00;;;15.40;33.50;;;;;;5060167;28;46605;-78
2023/07/21 04:19:20;;;;;;;6.50;3.60;;;15.40;33.50;;;;;;5059364;28;46499;-80
2023/07/21 04:21:47;;;;;;;9.70;3.37;;;15.50;33.60;;;;;;5063567;28;46487;-81
2023/07/21 04:24:13;;;;;;;8.43;4.03;;;15.50;33.70;;;;;;5066028;28;46892;-80
2023/07/21 04:26:39;;;;;;;9.20;4.20;;;15.50;33.70;;;;;;5065109;28;45938;-79
2023/07/21 04:29:06;;;;;;;12.77;3.80;;;15.60;33.80;;;;;;5049643;28;46546;-79
2023/07/21 04:31:31;;;;;;;13.13;3.83;;;15.70;33.60;;;;;;5063302;28;45986;-81
2023/07/21 04:33:57;;;;;;;10.30;3.53;;;15.80;33.60;;;;;;5063885;28;46504;-81
2023/07/21 04:36:23;;;;;;;7.20;4.50;;;15.80;33.50;;;;;;5062438;28;46548;-80
2023/07/21 04:38:49;;;;;;;12.80;4.07;;;15.90;33.50;;;;;;5068020;28;46417;-79
2023/07/21 04:41:14;;;;;;;10.50;4.80;;;16.00;33.60;;;;;;5064124;28;46651;-81
2023/07/21 04:43:40;;;;;;;7.50;4.20;;;15.90;33.50;;;;;;5063261;28;46434;-82
2023/07/21 04:46:06;;;;;;;8.03;4.70;;;16.00;33.40;;;;;;5064188;28;46929;-79
2023/07/21 04:48:31;;;;;;;14.17;5.83;;;16.10;33.10;;;;;;5063555;27;47117;-80
2023/07/21 04:50:57;;;;;;;9.13;5.20;;;16.20;32.70;;;;;;5062697;28;46821;-79
2023/07/21 04:53:23;;;;;;;9.23;4.07;;;16.20;32.70;;;;;;5063534;28;46480;-80
2023/07/21 04:55:54;;;;;;;11.70;4.43;;;16.30;32.70;;;;;;5062976;28;46395;-79
2023/07/21 04:58:19;;;;;;;7.70;4.60;;;16.30;32.50;;;;;;5048445;28;48328;-80
2023/07/21 05:00:45;;;;;;;8.53;4.63;;;16.40;32.40;;;;;;5062315;28;46422;-80
2023/07/21 05:03:10;;;;;;;7.53;3.93;;;16.50;32.20;;;;;;5063658;28;46096;-80
2023/07/21 05:05:36;;;;;;;13.03;4.40;;;16.50;31.80;;;;;;5062867;28;46457;-77
2023/07/21 05:08:01;;;;;;;10.20;4.60;;;16.60;32.70;;;;;;5061853;28;46501;-79
2023/07/21 05:10:27;;;;;;;14.67;4.80;;;16.90;31.20;;;;;;5062127;28;46374;-80
2023/07/21 05:12:53;;;;;;;8.70;4.30;;;16.80;31.10;;;;;;5062706;28;46441;-80
2023/07/21 05:15:19;;;;;;;10.40;4.60;;;16.90;31.20;;;;;;5062491;28;46673;-79
2023/07/21 05:17:44;;;;;;;9.83;4.50;;;17.10;31.40;;;;;;5062664;28;46437;-80
2023/07/21 05:20:11;;;;;;;7.77;4.43;;;17.30;31.50;;;;;;5065162;28;46462;-81
2023/07/21 05:22:37;;;;;;;11.87;4.50;;;17.50;30.70;;;;;;5064621;28;46495;-80
2023/07/21 05:25:07;;;;;;;16.33;4.87;;;17.80;30.10;;;;;;5062788;28;46971;-79
2023/07/21 05:27:34;;;;;;;9.63;3.97;;;18.10;29.80;;;;;;5061676;28;48384;-79
2023/07/21 05:29:59;;;;;;;9.43;4.20;;;18.80;29.30;;;;;;5044659;28;46422;-81
2023/07/21 05:32:25;;;;;;;11.87;4.13;;;20.20;27.20;;;;;;5060003;27;46454;-81
2023/07/21 05:34:50;;;;;;;17.70;4.60;;;20.80;25.90;;;;;;5059557;28;46332;-82
2023/07/21 05:37:16;;;;;;;15.10;4.60;;;21.10;25.10;;;;;;5061414;28;47551;-83
2023/07/21 05:39:42;;;;;;;8.73;4.23;;;21.80;23.70;;;;;;5059819;28;46520;-83
2023/07/21 05:42:08;;;;;;;10.53;3.90;;;22.80;22.10;;;;;;5060199;28;45908;-79
2023/07/21 05:44:34;;;;;;;9.60;3.90;;;23.20;21.00;;;;;;5060228;28;46393;-82
2023/07/21 05:47:01;;;;;;;8.70;4.00;;;23.50;20.20;;;;;;5060041;28;47807;-80
2023/07/21 05:49:26;;;;;;;10.17;4.20;;;23.40;19.80;;;;;;5050609;28;46936;-79
2023/07/21 05:51:52;;;;;;;11.77;3.50;;;23.70;18.90;;;;;;5061787;28;46507;-83
2023/07/21 05:54:18;;;;;;;12.50;4.00;;;24.70;16.90;;;;;;5060444;28;46457;-82
2023/07/21 05:56:44;;;;;;;9.37;3.63;;;25.70;15.00;;;;;;5043268;28;47447;-84
2023/07/21 05:59:10;;;;;;;10.07;3.80;;;26.60;12.30;;;;;;5062136;28;46515;-82
2023/07/21 06:01:37;;;;;;;8.13;3.10;;;27.20;11.00;;;;;;5058685;28;46473;-80
2023/07/21 06:04:07;;;;;;;9.07;3.70;;;27.70;10.20;;;;;;5039617;28;46414;-81
2023/07/21 06:06:32;;;;;;;8.60;3.93;;;27.80;9.30;;;;;;5058449;28;46995;-84
2023/07/21 06:08:58;;;;;;;9.30;3.67;;;28.20;8.60;;;;;;5044010;28;46424;-82
2023/07/21 06:11:27;;;;;;;7.63;3.10;;;27.40;9.70;;;;;;5042511;28;46738;-81
2023/07/21 06:13:54;;;;;;;7.60;3.63;;;26.60;11.30;;;;;;5040892;28;46575;-81
2023/07/21 06:16:22;;;;;;;6.13;3.47;;;26.10;13.30;;;;;;5058854;28;47575;-80
2023/07/21 06:18:49;;;;;;;14.00;3.57;;;25.50;14.00;;;;;;5058634;28;46485;-83
2023/07/21 06:21:15;;;;;;;12.00;3.80;;;25.00;14.70;;;;;;5042683;28;46565;-80
2023/07/21 06:23:40;;;;;;;11.63;3.20;;;24.60;14.00;;;;;;5059391;28;46554;-83
2023/07/21 06:26:06;;;;;;;16.93;3.47;;;24.50;13.80;;;;;;5060121;28;46826;-78
2023/07/21 06:28:31;;;;;;;10.00;3.47;;;24.30;14.40;;;;;;5058780;28;46635;-80
2023/07/21 06:30:57;;;;;;;7.43;4.00;;;24.20;14.30;;;;;;5058644;28;46486;-80
2023/07/21 06:33:23;;;;;;;7.13;3.40;;;24.10;14.20;;;;;;5059543;28;46947;-81
2023/07/21 06:35:50;;;;;;;6.33;2.83;;;23.90;13.30;;;;;;5059599;28;46562;-80
2023/07/21 06:38:15;;;;;;;10.17;4.10;;;23.80;12.60;;;;;;5041704;28;46696;-82
2023/07/21 06:40:41;;;;;;;10.23;3.27;;;23.70;12.10;;;;;;5056745;28;46452;-80
2023/07/21 06:43:07;;;;;;;11.50;3.53;;;23.50;11.20;;;;;;5058675;28;46636;-80
2023/07/21 06:45:33;;;;;;;7.30;3.37;;;23.50;11.60;;;;;;5043153;28;48250;-80
2023/07/21 06:47:59;;;;;;;8.23;3.37;;;23.60;11.90;;;;;;5059195;28;46622;-81
2023/07/21 06:50:25;;;;;;;11.33;3.07;;;23.60;10.70;;;;;;5061918;28;46446;-82
2023/07/21 06:52:51;;;;;;;13.20;3.30;;;23.80;8.90;;;;;;5060074;28;46562;-84
2023/07/21 06:55:16;;;;;;;16.20;3.90;;;23.80;9.70;;;;;;5058874;28;47461;-82
2023/07/21 06:57:42;;;;;;;13.47;3.50;;;23.80;9.30;;;;;;5059387;28;46732;-83
2023/07/21 07:00:08;;;;;;;9.53;3.20;;;24.10;9.00;;;;;;5059160;28;46554;-79
2023/07/21 07:02:34;;;;;;;8.70;3.00;;;24.20;8.90;;;;;;5061728;28;46578;-80
2023/07/21 07:04:59;;;;;;;6.20;2.50;;;24.20;8.70;;;;;;5060078;28;46477;-80
2023/07/21 07:07:27;;;;;;;7.43;2.93;;;24.30;8.40;;;;;;5061888;28;46514;-80
2023/07/21 07:09:52;;;;;;;10.70;3.13;;;24.50;7.90;;;;;;5059522;28;46481;-79
2023/07/21 07:12:18;;;;;;;6.07;2.43;;;24.60;7.60;;;;;;5060553;28;46751;-80
2023/07/21 07:14:46;;;;;;;8.33;2.80;;;24.80;6.90;;;;;;5061530;28;46633;-85
2023/07/21 07:17:12;;;;;;;11.00;3.20;;;25.20;6.20;;;;;;5062062;28;46319;-80
2023/07/21 07:19:38;;;;;;;7.27;3.17;;;25.50;5.60;;;;;;5060273;28;46477;-80
2023/07/21 07:22:08;;;;;;;8.97;3.30;;;25.60;5.20;;;;;;5061124;28;46450;-81
2023/07/21 07:24:34;;;;;;;9.60;2.67;;;25.50;5.00;;;;;;5058783;28;47249;-85
2023/07/21 07:26:59;;;;;;;6.53;2.97;;;25.30;5.50;;;;;;5058445;28;46506;-84
2023/07/21 07:29:25;;;;;;;8.00;3.40;;;25.10;5.80;;;;;;5059505;28;46443;-80
2023/07/21 07:31:51;;;;;;;11.40;3.07;;;24.80;5.90;;;;;;5058066;28;46407;-82
2023/07/21 07:34:16;;;;;;;10.33;3.13;;;24.60;6.00;;;;;;5060083;28;46741;-81
2023/07/21 07:36:42;;;;;;;11.00;3.30;;;24.40;6.20;;;;;;5056986;28;46495;-80
2023/07/21 07:39:08;;;;;;;6.63;3.00;;;24.20;6.40;;;;;;5058478;28;46818;-82
2023/07/21 07:41:33;;;;;;;6.97;3.27;;;24.10;6.80;;;;;;5039818;28;46288;-80
2023/07/21 07:43:59;;;;;;;9.43;2.97;;;24.00;7.00;;;;;;5058803;28;46455;-81
2023/07/21 07:46:25;;;;;;;6.50;2.93;;;23.90;7.00;;;;;;5058110;28;46515;-80
2023/07/21 07:48:51;;;;;;;9.87;3.23;;;23.80;7.10;;;;;;5058858;28;46526;-81
2023/07/21 07:51:16;;;;;;;11.77;3.10;;;23.90;7.20;;;;;;5058364;28;46386;-80
2023/07/21 07:53:42;;;;;;;4.60;2.30;;;23.80;7.10;;;;;;5058146;28;46483;-81
2023/07/21 07:56:14;;;;;;;6.30;2.67;;;23.80;8.40;;;;;;5061852;28;46919;-81
2023/07/21 07:58:39;;;;;;;6.47;2.90;;;23.90;7.30;;;;;;5042549;28;46712;-78
2023/07/21 08:01:05;;;;;;;13.13;3.63;;;23.90;7.30;;;;;;5045978;28;46670;-79
2023/07/21 08:03:30;;;;;;;6.13;2.70;;;23.90;7.30;;;;;;5060330;28;46402;-81
2023/07/21 08:05:58;;;;;;;7.00;2.70;;;23.90;7.30;;;;;;5061813;28;46898;-83
2023/07/21 08:08:23;;;;;;;7.10;2.90;;;24.00;7.10;;;;;;5061556;28;46423;-78
2023/07/21 08:10:49;;;;;;;7.47;3.00;;;24.00;7.20;;;;;;5060548;28;46459;-81
2023/07/21 08:13:15;;;;;;;5.37;2.67;;;24.10;7.20;;;;;;5062535;28;47402;-83
2023/07/21 08:15:42;;;;;;;6.43;2.80;;;24.20;6.90;;;;;;5061991;28;45894;-82
2023/07/21 08:18:09;;;;;;;10.83;2.67;;;24.30;7.00;;;;;;5061523;28;46461;-81
2023/07/21 08:20:39;;;;;;;17.07;3.30;;;24.30;7.80;;;;;;5063053;28;46321;-83
2023/07/21 08:23:05;;;;;;;7.83;2.87;;;24.70;5.90;;;;;;5060204;28;46576;-84
2023/07/21 08:25:31;;;;;;;6.60;3.07;;;24.70;6.60;;;;;;5065691;28;46494;-80
2023/07/21 08:27:59;;;;;;;8.53;3.23;;;24.90;6.50;;;;;;5061672;28;46809;-83
2023/07/21 08:30:25;;;;;;;6.70;2.53;;;24.80;6.00;;;;;;5063252;28;45850;-80
2023/07/21 08:32:51;;;;;;;7.00;2.40;;;24.80;5.10;;;;;;5044078;28;47358;-82
2023/07/21 08:35:16;;;;;;;11.43;3.10;;;24.80;5.90;;;;;;5062421;28;46442;-83
2023/07/21 08:37:42;;;;;;;7.20;2.70;;;24.80;6.10;;;;;;5060445;28;45805;-78
2023/07/21 08:40:08;;;;;;;7.27;2.30;;;24.70;6.20;;;;;;5060760;28;45800;-81
2023/07/21 08:42:36;;;;;;;5.37;2.73;;;24.50;6.20;;;;;;5060800;28;48060;-82
2023/07/21 08:45:04;;;;;;;5.90;2.60;;;24.80;6.30;;;;;;5062324;28;46511;-84
2023/07/21 08:47:31;;;;;;;9.23;2.73;;;24.80;6.20;;;;;;5059445;28;46367;-81
2023/07/21 08:49:57;;;;;;;7.30;2.90;;;24.80;5.90;;;;;;5059721;28;46646;-81
2023/07/21 08:52:23;;;;;;;14.60;3.00;;;25.00;5.70;;;;;;5062541;28;46516;-82
2023/07/21 08:54:49;;;;;;;7.37;2.57;;;25.00;5.80;;;;;;5062478;28;46408;-83
2023/07/21 08:57:15;;;;;;;7.17;2.40;;;24.90;5.60;;;;;;5062166;28;46530;-80
2023/07/21 08:59:41;;;;;;;9.77;2.77;;;24.80;5.60;;;;;;5062471;28;46478;-82
2023/07/21 09:02:07;;;;;;;5.70;2.47;;;24.60;5.70;;;;;;5043480;28;49776;-82
2023/07/21 09:04:33;;;;;;;8.40;2.50;;;24.40;5.50;;;;;;5055146;28;47375;-82
2023/07/21 09:07:01;;;;;;;5.73;2.30;;;24.30;5.60;;;;;;5055684;28;46602;-82
2023/07/21 09:09:31;;;;;;;6.80;2.93;;;24.20;5.70;;;;;;5061924;28;45940;-82
2023/07/21 09:12:11;;;;;;;8.93;2.60;;;24.00;5.70;;;;;;5053824;28;46567;-82
2023/07/21 09:14:38;;;;;;;10.40;2.60;;;23.90;5.80;;;;;;5051604;28;46959;-82
2023/07/21 09:17:05;;;;;;;5.50;2.70;;;24.00;5.90;;;;;;5059552;28;46500;-80
2023/07/21 09:19:35;;;;;;;7.87;3.20;;;24.20;5.70;;;;;;5060425;28;46455;-80
2023/07/21 09:22:01;;;;;;;8.63;2.70;;;24.40;5.50;;;;;;5040648;28;48149;-80
2023/07/21 09:24:26;;;;;;;8.10;2.57;;;24.50;5.40;;;;;;5061842;28;46558;-79
2023/07/21 09:27:11;;;;;;;6.33;2.80;;;24.40;5.50;;;;;;5060078;28;46475;-82
2023/07/21 09:29:37;;;;;;;7.27;2.90;;;24.60;5.30;;;;;;5060393;28;46663;-81
2023/07/21 09:32:19;;;;;;;12.10;2.80;;;24.80;5.50;;;;;;5058973;28;47170;-80
2023/07/21 09:34:58;;;;;;;8.27;2.73;;;25.20;4.90;;;;;;5052670;28;46481;-79
2023/07/21 09:37:26;;;;;;;7.00;3.20;;;25.50;4.80;;;;;;5059773;28;45835;-81
2023/07/21 09:39:54;;;;;;;7.37;2.63;;;25.60;4.70;;;;;;5059152;28;46628;-81
2023/07/21 09:42:23;;;;;;;6.90;2.97;;;25.70;4.10;;;;;;5058688;28;46947;-79
2023/07/21 09:44:50;;;;;;;9.00;2.60;;;25.40;4.40;;;;;;5057612;28;46435;-81
2023/07/21 09:47:17;;;;;;;7.00;2.53;;;25.30;4.80;;;;;;5060518;28;46787;-80
2023/07/21 09:49:43;;;;;;;7.60;2.83;;;25.40;4.60;;;;;;5041499;28;46431;-79
2023/07/21 09:52:13;;;;;;;4.57;2.23;;;25.50;4.20;;;;;;5053117;28;46691;-80
2023/07/21 09:54:44;;;;;;;10.13;3.00;;;25.60;3.80;;;;;;5051513;28;46128;-81
2023/07/21 09:57:13;;;;;;;6.43;2.73;;;25.50;3.70;;;;;;5060018;28;46777;-82
2023/07/21 09:59:41;;;;;;;5.57;2.63;;;25.60;3.70;;;;;;5047755;28;46607;-82
2023/07/21 10:02:08;;;;;;;11.90;2.43;;;25.50;3.70;;;;;;5051560;28;48058;-81
2023/07/21 10:04:34;;;;;;;7.47;2.90;;;25.60;3.80;;;;;;5043003;28;46551;-80
2023/07/21 10:07:03;;;;;;;7.40;2.70;;;25.70;3.80;;;;;;5041995;28;45883;-81
2023/07/21 10:09:30;;;;;;;7.67;2.43;;;25.90;3.00;;;;;;5052365;28;46640;-79
2023/07/21 10:12:15;;;;;;;5.53;2.20;;;25.90;2.10;;;;;;5058872;28;47181;-79
2023/07/21 10:14:41;;;;;;;4.00;2.17;;;25.90;1.90;;;;;;5063481;28;47149;-79
2023/07/21 10:17:08;;;;;;;5.17;2.40;;;25.80;1.80;;;;;;5059278;28;46467;-80
2023/07/21 10:19:44;;;;;;;4.90;2.30;;;25.80;1.30;;;;;;5064343;28;46488;-80
2023/07/21 10:22:12;;;;;;;4.10;2.53;;;25.60;1.00;;;;;;5061795;28;47114;-80
2023/07/21 10:24:48;;;;;;;6.83;2.50;;;25.60;1.00;;;;;;5059409;28;46386;-80
2023/07/21 10:27:22;;;;;;;5.47;2.30;;;25.70;1.00;;;;;;5043693;28;47245;-79
2023/07/21 10:29:51;;;;;;;5.70;2.20;;;25.50;1.00;;;;;;5060524;28;46416;-80
2023/07/21 10:32:20;;;;;;;6.13;2.30;;;25.30;1.00;;;;;;5061742;28;46436;-80
2023/07/21 10:34:46;;;;;;;9.50;2.43;;;25.70;1.00;;;;;;5061119;28;46656;-81
2023/07/21 10:37:12;;;;;;;14.07;2.30;;;25.80;1.00;;;;;;5061455;28;46666;-81
2023/07/21 10:39:42;;;;;;;4.70;2.33;;;25.70;1.00;;;;;;5065779;28;46487;-83
2023/07/21 10:42:09;;;;;;;6.03;2.30;;;25.80;1.00;;;;;;5061721;28;46983;-82
2023/07/21 10:44:44;;;;;;;6.90;2.83;;;25.90;1.00;;;;;;5062172;28;46471;-79
2023/07/21 10:47:13;;;;;;;4.07;2.20;;;25.90;1.00;;;;;;5060348;28;46473;-89
2023/07/21 10:49:39;;;;;;;6.90;2.00;;;26.20;1.00;;;;;;5061814;28;46860;-85
2023/07/21 10:52:05;;;;;;;5.20;2.40;;;26.20;1.00;;;;;;5057931;28;46641;-83
2023/07/21 10:54:31;;;;;;;6.63;2.63;;;26.20;1.00;;;;;;5053676;28;46871;-84
2023/07/21 10:56:58;;;;;;;8.47;2.37;;;26.20;1.00;;;;;;5051596;28;46545;-85
2023/07/21 10:59:24;;;;;;;7.33;2.70;;;26.30;1.00;;;;;;5060852;28;46470;-84
2023/07/21 11:01:51;;;;;;;7.00;2.40;;;26.60;1.00;;;;;;5056588;28;46663;-83
2023/07/21 11:04:19;;;;;;;7.67;2.77;;;26.60;1.00;;;;;;5049382;28;46500;-84
2023/07/21 11:06:46;;;;;;;8.60;2.80;;;26.90;1.00;;;;;;5057416;28;46425;-83
2023/07/21 11:09:13;;;;;;;9.70;2.57;;;26.90;1.00;;;;;;5058918;28;46917;-83
2023/07/21 11:11:44;;;;;;;5.13;2.10;;;27.00;1.00;;;;;;5054458;28;48265;-82
2023/07/21 11:14:18;;;;;;;7.80;2.80;;;27.20;1.00;;;;;;5056211;28;47058;-79
2023/07/21 11:16:48;;;;;;;5.00;2.43;;;26.90;1.00;;;;;;5060564;28;46581;-79
2023/07/21 11:19:15;;;;;;;5.17;2.50;;;26.90;1.00;;;;;;5058746;28;46787;-82
2023/07/21 11:21:41;;;;;;;6.47;2.83;;;27.00;1.00;;;;;;5057927;28;46433;-82
2023/07/21 11:24:10;;;;;;;6.80;2.67;;;27.30;1.00;;;;;;5056942;28;45819;-80
2023/07/21 11:26:39;;;;;;;7.63;2.30;;;27.50;1.00;;;;;;5059039;28;46547;-80
2023/07/21 11:29:06;;;;;;;5.50;2.10;;;27.60;1.00;;;;;;5057833;28;46732;-81
2023/07/21 11:31:33;;;;;;;7.27;2.30;;;27.80;1.00;;;;;;5058942;28;46245;-77
2023/07/21 11:33:59;;;;;;;5.03;2.47;;;28.00;1.00;;;;;;5058857;28;46422;-79
2023/07/21 11:36:28;;;;;;;8.77;2.47;;;28.30;1.00;;;;;;5058314;28;46855;-82
2023/07/21 11:39:11;;;;;;;5.00;2.53;;;28.60;1.00;;;;;;5061376;28;46497;-81
2023/07/21 11:41:39;;;;;;;7.33;2.47;;;28.70;1.00;;;;;;5061835;28;46488;-78
2023/07/21 11:44:15;;;;;;;7.07;2.73;;;28.60;1.00;;;;;;5061625;28;46491;-81
2023/07/21 11:46:41;;;;;;;4.60;2.43;;;28.50;1.00;;;;;;5062344;28;46650;-81
2023/07/21 11:49:10;;;;;;;12.37;2.10;;;28.70;1.00;;;;;;5062024;28;46554;-79
2023/07/21 11:51:53;;;;;;;6.37;2.50;;;28.80;1.00;;;;;;5061706;28;46456;-78
2023/07/21 11:54:20;;;;;;;10.30;2.50;;;29.00;1.00;;;;;;5062412;28;46408;-81
2023/07/21 11:56:46;;;;;;;8.67;2.60;;;28.90;1.00;;;;;;5061315;28;46427;-79
2023/07/21 11:59:12;;;;;;;12.50;2.30;;;28.80;1.00;;;;;;5062543;28;46590;-80
2023/07/21 12:01:38;;;;;;;5.27;2.27;;;29.20;1.00;;;;;;5062855;28;46679;-82
2023/07/21 12:04:04;;;;;;;8.33;2.70;;;29.40;1.00;;;;;;5063381;28;46550;-81
2023/07/21 12:06:30;;;;;;;6.27;2.40;;;29.20;1.00;;;;;;5065368;28;46488;-79
2023/07/21 12:08:55;;;;;;;7.70;2.13;;;29.00;1.00;;;;;;5066717;28;46406;-78
2023/07/21 12:11:21;;;;;;;4.50;2.23;;;28.80;1.00;;;;;;5064602;28;47448;-80
2023/07/21 12:13:46;;;;;;;6.43;2.33;;;28.80;1.00;;;;;;5062642;28;47518;-84
2023/07/21 12:16:12;;;;;;;7.83;2.40;;;29.20;1.00;;;;;;5064614;28;46535;-81
2023/07/21 12:18:38;;;;;;;5.30;2.00;;;29.40;1.00;;;;;;5064704;28;45936;-80
2023/07/21 12:21:07;;;;;;;6.83;2.07;;;29.40;1.00;;;;;;5062099;28;46968;-80
2023/07/21 12:23:32;;;;;;;7.73;2.27;;;29.30;1.00;;;;;;5063039;28;46550;-82
2023/07/21 12:25:58;;;;;;;7.27;2.93;;;29.40;1.00;;;;;;5064402;28;46619;-80
2023/07/21 12:28:23;;;;;;;5.20;2.27;;;29.40;1.00;;;;;;5061581;28;46534;-82
2023/07/21 12:30:49;;;;;;;8.63;2.30;;;29.70;1.00;;;;;;5040275;28;48233;-81
2023/07/21 12:33:15;;;;;;;6.70;2.57;;;29.70;1.00;;;;;;5060739;28;46512;-81
2023/07/21 12:35:40;;;;;;;5.53;2.27;;;29.60;1.00;;;;;;5059635;28;46391;-78
2023/07/21 12:38:06;;;;;;;4.87;2.40;;;29.70;1.00;;;;;;5059380;28;46339;-78
2023/07/21 12:40:31;;;;;;;7.77;2.27;;;29.70;1.00;;;;;;5061143;28;46407;-79
2023/07/21 12:42:57;;;;;;;7.60;2.20;;;29.30;1.00;;;;;;5058339;28;46124;-77
2023/07/21 12:45:22;;;;;;;7.00;2.70;;;29.30;1.00;;;;;;5061875;28;46424;-77
2023/07/21 12:47:48;;;;;;;6.53;2.10;;;28.90;1.00;;;;;;5059277;28;46722;-79